createdAt,value
2018-07-27T00:02:26.450Z,99024.95
2018-07-27T00:04:54.424Z,99025.49
2018-07-27T00:07:23.250Z,99021.27
2018-07-27T00:09:51.229Z,99021.72
2018-07-27T00:12:19.343Z,99020.19
2018-07-27T00:14:47.291Z,99016.17
2018-07-27T00:17:16.129Z,99020.88
2018-07-27T00:19:44.283Z,99022.70
2018-07-27T00:22:12.092Z,99024.92
2018-07-27T00:24:40.861Z,99024.89
2018-07-27T00:27:08.993Z,99027.95
2018-07-27T00:29:36.737Z,99026.48
2018-07-27T00:32:04.652Z,99021.09
2018-07-27T00:34:32.595Z,99018.42
2018-07-27T00:37:00.559Z,99022.52
2018-07-27T00:39:28.465Z,99021.88
2018-07-27T00:41:56.512Z,99022.58
2018-07-27T00:44:24.431Z,99022.38
2018-07-27T00:46:52.324Z,99023.55
2018-07-27T00:49:20.722Z,99020.86
2018-07-27T00:51:48.558Z,99013.97
2018-07-27T00:54:16.534Z,99019.71
2018-07-27T00:56:44.453Z,99016.50
2018-07-27T00:59:12.432Z,99023.23
2018-07-27T01:01:40.184Z,99028.65
2018-07-27T01:04:08.730Z,99020.92
2018-07-27T01:06:36.545Z,99022.44
2018-07-27T01:09:06.972Z,99023.12
2018-07-27T01:11:34.948Z,99025.98
2018-07-27T01:14:02.836Z,99023.31
2018-07-27T01:16:30.684Z,99022.95
2018-07-27T01:18:58.590Z,99018.75
2018-07-27T01:21:27.501Z,99016.39
2018-07-27T01:23:55.293Z,99017.41
2018-07-27T01:26:23.266Z,99011.69
2018-07-27T01:28:51.077Z,99011.71
2018-07-27T01:31:18.884Z,99004.97
2018-07-27T01:33:46.843Z,99008.48
2018-07-27T01:36:14.708Z,99009.67
2018-07-27T01:38:42.578Z,99014.71
2018-07-27T01:41:10.398Z,99010.34
2018-07-27T01:43:38.163Z,99012.70
2018-07-27T01:46:06.102Z,99011.19
2018-07-27T01:48:34.044Z,99005.64
2018-07-27T01:51:02.001Z,99008.17
2018-07-27T01:53:29.852Z,99008.68
2018-07-27T01:55:58.082Z,99012.55
2018-07-27T01:58:26.068Z,99015.41
2018-07-27T02:00:53.992Z,99015.92
2018-07-27T02:03:21.868Z,99012.55
2018-07-27T02:05:49.735Z,99011.36
2018-07-27T02:08:17.510Z,99016.76
2018-07-27T02:10:45.483Z,99021.46
2018-07-27T02:13:13.328Z,99019.77
2018-07-27T02:15:41.166Z,99018.59
2018-07-27T02:18:09.395Z,99017.75
2018-07-27T02:20:37.241Z,99020.78
2018-07-27T02:23:05.099Z,99017.75
2018-07-27T02:25:33.159Z,99025.50
2018-07-27T02:28:00.864Z,99028.03
2018-07-27T02:30:28.796Z,99025.66
2018-07-27T02:32:56.769Z,99028.53
2018-07-27T02:35:24.608Z,99029.04
2018-07-27T02:37:52.883Z,99029.70
2018-07-27T02:40:20.857Z,99027.52
2018-07-27T02:42:49.824Z,99024.14
2018-07-27T02:45:17.656Z,99029.20
2018-07-27T02:47:48.431Z,99032.22
2018-07-27T02:50:16.539Z,99035.09
2018-07-27T02:52:44.386Z,99031.55
2018-07-27T02:55:12.201Z,99038.28
2018-07-27T02:57:40.071Z,99039.45
2018-07-27T03:00:08.199Z,99039.46
2018-07-27T03:02:36.167Z,99044.17
2018-07-27T03:05:04.511Z,99039.95
2018-07-27T03:07:32.468Z,99040.82
2018-07-27T03:10:00.596Z,99040.31
2018-07-27T03:12:28.555Z,99038.60
2018-07-27T03:14:56.431Z,99051.58
2018-07-27T03:17:24.441Z,99047.85
2018-07-27T03:19:52.239Z,99054.43
2018-07-27T03:22:20.114Z,99055.43
2018-07-27T03:24:48.016Z,99057.27
2018-07-27T03:27:15.912Z,99059.12
2018-07-27T03:29:45.941Z,99052.91
2018-07-27T03:32:13.787Z,99056.10
2018-07-27T03:34:41.735Z,99055.11
2018-07-27T03:37:09.637Z,99056.44
2018-07-27T03:39:37.590Z,99054.92
2018-07-27T03:42:05.535Z,99060.99
2018-07-27T03:44:33.432Z,99061.31
2018-07-27T03:47:01.473Z,99060.31
2018-07-27T03:49:29.431Z,99063.52
2018-07-27T03:51:57.279Z,99063.17
2018-07-27T03:54:25.196Z,99055.77
2018-07-27T03:56:53.153Z,99067.39
2018-07-27T03:59:21.031Z,99066.19
2018-07-27T04:01:48.900Z,99057.78
2018-07-27T04:04:16.744Z,99055.09
2018-07-27T04:06:44.699Z,99065.86
2018-07-27T04:09:12.590Z,99054.77
2018-07-27T04:11:40.626Z,99051.91
2018-07-27T04:14:08.796Z,99050.73
2018-07-27T04:16:36.676Z,99054.08
2018-07-27T04:19:04.480Z,99052.25
2018-07-27T04:21:32.391Z,99051.24
2018-07-27T04:24:00.303Z,99049.71
2018-07-27T04:26:28.189Z,99042.66
2018-07-27T04:28:55.973Z,99051.23
2018-07-27T04:31:23.873Z,99047.36
2018-07-27T04:33:51.799Z,99055.06
2018-07-27T04:36:19.690Z,99054.67
2018-07-27T04:38:47.607Z,99058.36
2018-07-27T04:41:16.153Z,99060.22
2018-07-27T04:43:43.985Z,99058.19
2018-07-27T04:46:11.863Z,99060.88
2018-07-27T04:48:39.828Z,99066.14
2018-07-27T04:51:07.685Z,99062.73
2018-07-27T04:53:35.560Z,99060.05
2018-07-27T04:56:03.480Z,99062.05
2018-07-27T04:58:32.572Z,99065.94
2018-07-27T05:01:00.680Z,99073.19
2018-07-27T05:03:28.520Z,99074.51
2018-07-27T05:05:56.571Z,99075.00
2018-07-27T05:08:24.493Z,99077.00
2018-07-27T05:10:52.491Z,99073.13
2018-07-27T05:13:20.290Z,99079.80
2018-07-27T05:15:49.035Z,99066.11
2018-07-27T05:18:17.582Z,99074.02
2018-07-27T05:20:45.678Z,99068.18
2018-07-27T05:23:14.574Z,99072.67
2018-07-27T05:25:42.572Z,99071.14
2018-07-27T05:28:10.414Z,99072.23
2018-07-27T05:30:38.259Z,99064.80
2018-07-27T05:33:06.291Z,99071.91
2018-07-27T05:35:34.144Z,99070.47
2018-07-27T05:38:02.128Z,99071.39
2018-07-27T05:40:30.130Z,99079.07
2018-07-27T05:42:58.041Z,99076.05
2018-07-27T05:45:25.940Z,99082.38
2018-07-27T05:47:53.870Z,99081.84
2018-07-27T05:50:21.838Z,99087.94
2018-07-27T05:52:50.300Z,99082.61
2018-07-27T05:55:18.151Z,99081.05
2018-07-27T05:57:45.994Z,99081.05
2018-07-27T06:00:14.163Z,99082.17
2018-07-27T06:02:42.005Z,99088.31
2018-07-27T06:05:09.887Z,99090.09
2018-07-27T06:07:38.291Z,99089.69
2018-07-27T06:10:06.643Z,99082.69
2018-07-27T06:12:35.014Z,99085.27
2018-07-27T06:15:02.999Z,99086.85
2018-07-27T06:17:30.912Z,99089.17
2018-07-27T06:19:58.695Z,99086.79
2018-07-27T06:22:26.929Z,99089.14
2018-07-27T06:24:55.831Z,99089.55
2018-07-27T06:27:24.055Z,99090.58
2018-07-27T06:29:52.464Z,99090.75
2018-07-27T06:32:20.362Z,99093.90
2018-07-27T06:34:48.206Z,99093.63
2018-07-27T06:37:16.283Z,99093.55
2018-07-27T06:39:45.234Z,99100.34
2018-07-27T06:42:13.613Z,99100.80
2018-07-27T06:44:41.856Z,99090.48
2018-07-27T06:47:09.794Z,99090.18
2018-07-27T06:49:37.735Z,99086.36
2018-07-27T06:52:06.115Z,99090.34
2018-07-27T06:54:34.172Z,99084.95
2018-07-27T06:57:01.895Z,99083.61
2018-07-27T06:59:30.009Z,99088.08
2018-07-27T07:01:58.058Z,99090.28
2018-07-27T07:04:26.393Z,99086.78
2018-07-27T07:06:55.639Z,99085.28
2018-07-27T07:09:23.489Z,99090.17
2018-07-27T07:11:51.411Z,99088.53
2018-07-27T07:14:19.405Z,99087.75
2018-07-27T07:16:47.341Z,99088.78
2018-07-27T07:19:15.290Z,99086.00
2018-07-27T07:21:43.363Z,99087.98
2018-07-27T07:24:11.279Z,99090.27
2018-07-27T07:26:39.133Z,99079.68
2018-07-27T07:29:07.475Z,99078.31
2018-07-27T07:31:35.201Z,99080.81
2018-07-27T07:34:02.982Z,99080.26
2018-07-27T07:36:30.752Z,99077.23
2018-07-27T07:38:58.509Z,99080.26
2018-07-27T07:41:26.201Z,99077.41
2018-07-27T07:43:54.458Z,99075.55
2018-07-27T07:46:22.158Z,99078.00
2018-07-27T07:48:49.981Z,99075.05
2018-07-27T07:51:17.722Z,99078.01
2018-07-27T07:53:45.432Z,99072.45
2018-07-27T07:56:13.160Z,99077.27
2018-07-27T07:58:41.048Z,99077.61
2018-07-27T08:01:08.838Z,99073.78
2018-07-27T08:03:36.575Z,99080.66
2018-07-27T08:06:04.630Z,99076.16
2018-07-27T08:08:32.370Z,99078.14
2018-07-27T08:11:00.149Z,99077.00
2018-07-27T08:13:28.210Z,99076.86
2018-07-27T08:15:56.081Z,99079.09
2018-07-27T08:18:24.941Z,99077.65
2018-07-27T08:20:53.181Z,99079.31
2018-07-27T08:23:20.950Z,99077.13
2018-07-27T08:26:55.359Z,99071.98
2018-07-27T08:29:25.475Z,99071.77
2018-07-27T08:31:53.630Z,99078.50
2018-07-27T08:34:21.922Z,99061.08
2018-07-27T08:36:50.131Z,99060.48
2018-07-27T08:39:22.218Z,99050.39
2018-07-27T08:41:50.033Z,99053.99
2018-07-27T08:44:19.161Z,99041.87
2018-07-27T08:46:47.049Z,99038.54
2018-07-27T08:49:14.727Z,99050.16
2018-07-27T08:51:42.546Z,99051.26
2018-07-27T08:54:10.810Z,99047.70
2018-07-27T08:56:38.682Z,99046.98
2018-07-27T08:59:06.681Z,99042.86
2018-07-27T09:01:34.556Z,99037.90
2018-07-27T09:04:02.476Z,99039.98
2018-07-27T09:06:31.049Z,99032.48
2018-07-27T09:08:59.088Z,99034.98
2018-07-27T09:11:26.904Z,99034.04
2018-07-27T09:13:55.173Z,99030.44
2018-07-27T09:16:23.668Z,99028.59
2018-07-27T09:18:52.095Z,99030.50
2018-07-27T09:21:19.883Z,99021.36
2018-07-27T09:23:48.181Z,99016.97
2018-07-27T09:26:16.031Z,99018.33
2018-07-27T09:28:43.830Z,99016.28
2018-07-27T09:31:12.242Z,99015.23
2018-07-27T09:33:40.231Z,99006.14
2018-07-27T09:36:08.257Z,98995.22
2018-07-27T09:38:36.206Z,98998.95
2018-07-27T09:41:04.117Z,98996.79
2018-07-27T09:43:31.946Z,98991.99
2018-07-27T09:46:00.104Z,98987.30
2018-07-27T09:48:27.985Z,98981.77
2018-07-27T09:50:55.948Z,98982.24
2018-07-27T09:53:24.142Z,98982.52
2018-07-27T09:55:52.143Z,98974.86
2018-07-27T09:58:20.033Z,98968.00
2018-07-27T10:00:53.356Z,98965.20
2018-07-27T10:03:21.288Z,98962.63
2018-07-27T10:05:49.488Z,98949.50
2018-07-27T10:08:17.534Z,98939.41
2018-07-27T10:10:45.493Z,98943.31
2018-07-27T10:13:13.459Z,98935.94
2018-07-27T10:15:41.468Z,98935.58
2018-07-27T10:18:09.504Z,98931.02
2018-07-27T10:20:37.541Z,98933.58
2018-07-27T10:23:05.997Z,98931.88
2018-07-27T10:25:33.953Z,98929.45
2018-07-27T10:28:01.952Z,98920.84
2018-07-27T10:30:30.151Z,98928.75
2018-07-27T10:32:58.186Z,98919.95
2018-07-27T10:35:26.227Z,98911.64
2018-07-27T10:37:54.352Z,98909.26
2018-07-27T10:40:22.322Z,98904.52
2018-07-27T10:42:50.276Z,98900.12
2018-07-27T10:45:19.661Z,98899.51
2018-07-27T10:47:47.616Z,98894.42
2018-07-27T10:50:15.664Z,98903.50
2018-07-27T10:52:43.757Z,98905.39
2018-07-27T10:55:11.720Z,98905.14
2018-07-27T10:57:39.746Z,98904.66
2018-07-27T11:00:15.819Z,98901.55
2018-07-27T11:02:43.734Z,98900.18
2018-07-27T11:05:12.313Z,98903.06
2018-07-27T11:07:40.511Z,98894.62
2018-07-27T11:10:09.482Z,98894.19
2018-07-27T11:12:37.502Z,98893.75
2018-07-27T11:15:06.722Z,98888.95
2018-07-27T11:17:34.703Z,98888.99
2018-07-27T11:20:04.127Z,98873.28
2018-07-27T11:22:32.541Z,98877.45
2018-07-27T11:25:00.558Z,98881.66
2018-07-27T11:27:28.394Z,98874.69
2018-07-27T11:29:56.399Z,98887.45
2018-07-27T11:32:24.580Z,98876.52
2018-07-27T11:34:52.461Z,98873.70
2018-07-27T11:37:21.308Z,98881.95
2018-07-27T11:39:49.121Z,98896.85
2018-07-27T11:42:18.135Z,98892.03
2018-07-27T11:44:46.377Z,98875.49
2018-07-27T11:47:14.442Z,98880.51
2018-07-27T11:49:42.365Z,98868.38
2018-07-27T11:52:10.883Z,98876.86
2018-07-27T11:54:38.874Z,98884.45
2018-07-27T11:57:06.933Z,98889.66
2018-07-27T11:59:36.046Z,98913.02
2018-07-27T12:02:04.000Z,98894.61
2018-07-27T12:04:31.946Z,98903.52
2018-07-27T12:07:00.460Z,98896.84
2018-07-27T12:09:29.453Z,98901.22
2018-07-27T12:11:57.526Z,98895.79
2018-07-27T12:14:26.319Z,98889.16
2018-07-27T12:16:54.217Z,98877.49
2018-07-27T12:19:23.133Z,98890.16
2018-07-27T12:21:51.172Z,98888.17
2018-07-27T12:24:19.475Z,98905.50
2018-07-27T12:26:47.524Z,98888.74
2018-07-27T12:29:16.432Z,98888.78
2018-07-27T12:31:44.378Z,98895.48
2018-07-27T12:34:12.355Z,98908.61
2018-07-27T12:36:40.305Z,98919.31
2018-07-27T12:39:10.280Z,98900.27
2018-07-27T12:41:40.334Z,98892.12
2018-07-27T12:44:07.974Z,98897.85
2018-07-27T12:46:36.127Z,98885.30
2018-07-27T12:49:04.272Z,98879.41
2018-07-27T12:51:32.563Z,98886.78
2018-07-27T12:54:01.042Z,98894.64
2018-07-27T12:56:28.857Z,98892.00
2018-07-27T12:58:56.647Z,98905.98
2018-07-27T13:01:24.414Z,98908.36
2018-07-27T13:03:53.209Z,98905.45
2018-07-27T13:06:21.120Z,98899.31
2018-07-27T13:08:48.854Z,98896.29
2018-07-27T13:11:17.090Z,98887.38
2018-07-27T13:13:44.977Z,98890.78
2018-07-27T13:16:12.710Z,98890.05
2018-07-27T13:18:40.585Z,98887.17
2018-07-27T13:21:08.342Z,98888.84
2018-07-27T13:23:36.318Z,98878.67
2018-07-27T13:28:36.089Z,98873.31
2018-07-27T13:31:03.869Z,98880.39
2018-07-27T13:33:32.037Z,98887.69
2018-07-27T13:38:28.202Z,98881.92
2018-07-27T13:40:56.497Z,98888.16
2018-07-27T13:43:24.346Z,98882.31
2018-07-27T13:45:52.106Z,98883.45
2018-07-27T13:48:19.850Z,98891.93
2018-07-27T13:50:47.542Z,98896.34
2018-07-27T13:53:15.377Z,98895.29
2018-07-27T13:55:43.573Z,98901.03
2018-07-27T13:58:11.270Z,98901.73
2018-07-27T14:00:39.149Z,98896.85
2018-07-27T14:03:07.015Z,98889.27
2018-07-27T14:05:34.698Z,98888.98
2018-07-27T14:08:02.673Z,98886.06
2018-07-27T14:10:30.438Z,98883.94
2018-07-27T14:12:58.127Z,98887.97
2018-07-27T14:15:26.099Z,98889.54
2018-07-27T14:17:53.768Z,98893.38
2018-07-27T14:20:21.445Z,98880.53
2018-07-27T14:22:49.314Z,98878.98
2018-07-27T14:25:17.097Z,98865.48
2018-07-27T14:27:44.776Z,98865.33
2018-07-27T14:30:12.775Z,98860.74
2018-07-27T14:32:40.587Z,98865.10
2018-07-27T14:35:08.394Z,98862.70
2018-07-27T14:37:36.121Z,98866.95
2018-07-27T14:40:04.355Z,98865.07
2018-07-27T14:42:32.168Z,98870.17
2018-07-27T14:45:00.201Z,98888.77
2018-07-27T14:47:28.256Z,98891.45
2018-07-27T14:49:55.887Z,98886.79
2018-07-27T14:52:23.999Z,98880.11
2018-07-27T14:54:51.709Z,98886.48
2018-07-27T14:57:19.350Z,98892.94
2018-07-27T14:59:47.738Z,98892.34
2018-07-27T15:02:15.375Z,98888.09
2018-07-27T15:04:43.084Z,98894.88
2018-07-27T15:07:11.091Z,98891.92
2018-07-27T15:09:38.790Z,98894.31
2018-07-27T15:12:06.640Z,98898.49
2018-07-27T15:14:34.593Z,98905.57
2018-07-27T15:17:03.312Z,98915.97
2018-07-27T15:19:31.218Z,98926.84
2018-07-27T15:21:58.950Z,98915.58
2018-07-27T15:24:26.681Z,98913.29
2018-07-27T15:26:54.467Z,98924.28
2018-07-27T15:29:22.371Z,98922.16
2018-07-27T15:31:50.064Z,98925.69
2018-07-27T15:34:17.725Z,98928.41
2018-07-27T15:36:45.961Z,98920.55
2018-07-27T15:39:13.713Z,98926.83
2018-07-27T15:41:41.526Z,98925.82
2018-07-27T15:44:09.507Z,98931.03
2018-07-27T15:46:37.419Z,98927.64
2018-07-27T15:49:05.172Z,98929.20
2018-07-27T15:51:33.470Z,98929.92
2018-07-27T15:54:01.215Z,98923.95
2018-07-27T15:56:29.228Z,98926.64
2018-07-27T15:58:57.030Z,98925.98
2018-07-27T16:01:24.797Z,98931.27
2018-07-27T16:03:52.579Z,98930.84
2018-07-27T16:06:20.598Z,98924.55
2018-07-27T16:08:48.399Z,98925.38
2018-07-27T16:11:16.154Z,98937.80
2018-07-27T16:13:43.986Z,98936.19
2018-07-27T16:16:11.807Z,98938.03
2018-07-27T16:18:39.701Z,98940.25
2018-07-27T16:21:07.593Z,98933.28
2018-07-27T16:23:35.469Z,98938.49
2018-07-27T16:26:03.604Z,98935.61
2018-07-27T16:28:31.382Z,98935.74
2018-07-27T16:30:59.098Z,98933.72
2018-07-27T16:33:26.865Z,98933.01
2018-07-27T16:35:55.212Z,98942.63
2018-07-27T16:38:23.002Z,98927.31
2018-07-27T16:40:50.862Z,98928.69
2018-07-27T16:43:19.133Z,98925.77
2018-07-27T16:45:46.897Z,98932.52
2018-07-27T16:48:14.669Z,98926.16
2018-07-27T16:50:42.518Z,98918.47
2018-07-27T16:53:10.286Z,98914.38
2018-07-27T16:55:38.077Z,98914.67
2018-07-27T16:58:06.379Z,98916.53
2018-07-27T17:00:34.063Z,98909.20
2018-07-27T17:03:02.008Z,98914.06
2018-07-27T17:05:30.238Z,98905.34
2018-07-27T17:07:58.049Z,98907.27
2018-07-27T17:10:25.841Z,98918.41
2018-07-27T17:12:53.815Z,98916.53
2018-07-27T17:15:21.514Z,98915.25
2018-07-27T17:17:49.222Z,98911.52
2018-07-27T17:20:17.254Z,98918.58
2018-07-27T17:22:44.967Z,98923.95
2018-07-27T17:25:12.766Z,98937.38
2018-07-27T17:27:40.721Z,98943.23
2018-07-27T17:30:08.898Z,98954.02
2018-07-27T17:32:37.287Z,98951.72
2018-07-27T17:35:05.377Z,98961.25
2018-07-27T17:37:34.019Z,98962.19
2018-07-27T17:40:01.730Z,98967.59
2018-07-27T17:42:29.669Z,98966.59
2018-07-27T17:44:57.384Z,98964.39
2018-07-27T17:47:25.221Z,98960.70
2018-07-27T17:49:53.409Z,98967.41
2018-07-27T17:52:21.452Z,98970.69
2018-07-27T17:54:49.179Z,98984.12
2018-07-27T17:57:16.993Z,98989.63
2018-07-27T17:59:44.775Z,98993.55
2018-07-27T18:02:12.458Z,98998.06
2018-07-27T18:04:41.428Z,99002.82
2018-07-27T18:07:09.244Z,98999.43
2018-07-27T18:09:36.886Z,99006.08
2018-07-27T18:12:04.676Z,99011.66
2018-07-27T18:14:32.453Z,99009.91
2018-07-27T18:17:00.262Z,99018.11
2018-07-27T18:19:28.185Z,99024.70
2018-07-27T18:21:55.900Z,99029.98
2018-07-27T18:24:24.369Z,99023.97
2018-07-27T18:26:52.430Z,99023.78
2018-07-27T18:29:20.110Z,99020.25
2018-07-27T18:31:47.889Z,99024.59
2018-07-27T18:34:15.599Z,99029.14
2018-07-27T18:36:43.301Z,99030.24
2018-07-27T18:39:12.307Z,99033.30
2018-07-27T18:41:40.013Z,99039.14
2018-07-27T18:44:08.087Z,99040.05
2018-07-27T18:46:36.108Z,99043.80
2018-07-27T18:49:03.923Z,99042.95
2018-07-27T18:51:31.752Z,99044.45
2018-07-27T18:53:59.406Z,99041.72
2018-07-27T18:56:27.268Z,99041.42
2018-07-27T18:58:54.903Z,99043.61
2018-07-27T19:01:22.634Z,99046.13
2018-07-27T19:03:50.447Z,99054.37
2018-07-27T19:06:18.213Z,99052.88
2018-07-27T19:08:46.278Z,99056.91
2018-07-27T19:11:14.010Z,99055.39
2018-07-27T19:13:41.786Z,99060.66
2018-07-27T19:16:10.059Z,99057.66
2018-07-27T19:18:37.879Z,99053.64
2018-07-27T19:21:05.610Z,99055.03
2018-07-27T19:23:33.391Z,99052.86
2018-07-27T19:26:01.170Z,99049.14
2018-07-27T19:28:28.989Z,99040.36
2018-07-27T19:30:56.837Z,99046.23
2018-07-27T19:33:24.658Z,99044.05
2018-07-27T19:35:52.514Z,99043.21
2018-07-27T19:38:20.300Z,99047.45
2018-07-27T19:40:48.046Z,99043.07
2018-07-27T19:43:15.761Z,99044.97
2018-07-27T19:45:44.078Z,99041.44
2018-07-27T19:48:11.853Z,99041.91
2018-07-27T19:50:39.662Z,99036.84
2018-07-27T19:53:07.421Z,99043.89
2018-07-27T19:55:35.270Z,99043.25
2018-07-27T19:58:03.069Z,99040.23
2018-07-27T20:00:30.888Z,99034.19
2018-07-27T20:02:58.605Z,99028.45
2018-07-27T20:05:26.425Z,99031.15
2018-07-27T20:07:59.777Z,99029.31
2018-07-27T20:10:27.648Z,99028.98
2018-07-27T20:12:55.399Z,99033.03
2018-07-27T20:15:23.544Z,99022.58
2018-07-27T20:17:51.287Z,99026.95
2018-07-27T20:20:19.083Z,99030.16
2018-07-27T20:22:46.864Z,99038.91
2018-07-27T20:25:14.595Z,99045.83
2018-07-27T20:27:42.316Z,99042.60
2018-07-27T20:30:10.046Z,99043.14
2018-07-27T20:32:37.817Z,99047.86
2018-07-27T20:35:05.566Z,99050.40
2018-07-27T20:37:33.598Z,99048.70
2018-07-27T20:40:01.472Z,99050.72
2018-07-27T20:42:29.211Z,99050.38
2018-07-27T20:44:57.314Z,99050.23
2018-07-27T20:47:25.118Z,99048.02
2018-07-27T20:49:52.823Z,99048.87
2018-07-27T20:52:20.741Z,99056.78
2018-07-27T20:54:48.523Z,99045.00
2018-07-27T20:57:16.376Z,99045.20
2018-07-27T20:59:44.376Z,99048.06
2018-07-27T21:02:12.150Z,99038.95
2018-07-27T21:04:39.886Z,99041.99
2018-07-27T21:07:07.735Z,99045.19
2018-07-27T21:09:35.565Z,99050.23
2018-07-27T21:12:03.344Z,99043.15
2018-07-27T21:14:31.256Z,99043.17
2018-07-27T21:16:58.979Z,99048.70
2018-07-27T21:19:26.737Z,99039.27
2018-07-27T21:21:55.732Z,99038.63
2018-07-27T21:24:23.442Z,99031.89
2018-07-27T21:26:51.079Z,99027.33
2018-07-27T21:29:19.271Z,99027.16
2018-07-27T21:31:47.006Z,99017.58
2018-07-27T21:34:14.717Z,99005.29
2018-07-27T21:36:43.713Z,98999.75
2018-07-27T21:39:12.995Z,99006.47
2018-07-27T21:41:40.737Z,99006.66
2018-07-27T21:44:08.682Z,99007.48
2018-07-27T21:46:36.431Z,99015.55
2018-07-27T21:49:04.198Z,99011.38
2018-07-27T21:51:32.171Z,99014.22
2018-07-27T21:53:59.910Z,99016.41
2018-07-27T21:56:27.686Z,99014.41
2018-07-27T21:58:55.479Z,99020.61
2018-07-27T22:01:23.425Z,99016.72
2018-07-27T22:03:51.126Z,99011.00
2018-07-27T22:06:19.102Z,99014.23
2018-07-27T22:08:46.814Z,99009.35
2018-07-27T22:11:14.636Z,99014.91
2018-07-27T22:13:42.732Z,99005.28
2018-07-27T22:16:10.546Z,99009.33
2018-07-27T22:18:38.338Z,99011.19
2018-07-27T22:21:06.583Z,99010.67
2018-07-27T22:23:34.447Z,99012.70
2018-07-27T22:26:02.256Z,99010.34
2018-07-27T22:28:30.014Z,99014.73
2018-07-27T22:30:57.825Z,99013.37
2018-07-27T22:33:25.590Z,99017.07
2018-07-27T22:35:53.353Z,99009.99
2018-07-27T22:38:21.168Z,99003.10
2018-07-27T22:40:48.879Z,98997.55
2018-07-27T22:43:16.844Z,98999.25
2018-07-27T22:45:44.645Z,99004.96
2018-07-27T22:48:12.366Z,98998.58
2018-07-27T22:50:40.417Z,98998.73
2018-07-27T22:53:08.193Z,98996.06
2018-07-27T22:55:35.889Z,99000.91
2018-07-27T22:58:05.034Z,98998.20
2018-07-27T23:00:32.726Z,98996.52
2018-07-27T23:03:00.588Z,99002.61
2018-07-27T23:05:28.507Z,98997.92
2018-07-27T23:07:56.250Z,98991.83
2018-07-27T23:10:23.971Z,98994.70
2018-07-27T23:12:51.850Z,98990.98
2018-07-27T23:15:19.551Z,98980.38
2018-07-27T23:17:47.272Z,98986.47
2018-07-27T23:20:15.119Z,98984.44
2018-07-27T23:22:43.576Z,98992.35
2018-07-27T23:25:11.362Z,98989.65
2018-07-27T23:27:39.538Z,98992.34
2018-07-27T23:30:09.431Z,98987.81
2018-07-27T23:32:37.130Z,98990.48
2018-07-27T23:35:04.899Z,98992.17
2018-07-27T23:37:32.531Z,99000.06
2018-07-27T23:40:00.316Z,99000.08
2018-07-27T23:42:28.101Z,98999.58
2018-07-27T23:44:56.994Z,98995.37
2018-07-27T23:47:24.770Z,98998.07
2018-07-27T23:49:52.872Z,98995.55
2018-07-27T23:52:20.821Z,98995.89
2018-07-27T23:54:48.779Z,98983.77
2018-07-27T23:57:17.037Z,98984.48
2018-07-27T23:59:44.832Z,98988.32
